sensor_id;sensor_type;location;lat;lon;timestamp;P1;durP1;ratioP1;P2;durP2;ratioP2
11046;SDS011;5576;50.008;10.596;2022-09-03T00:02:02;1.60;;;1.00;;
11046;SDS011;5576;50.008;10.596;2022-09-03T00:04:36;1.48;;;1.02;;
11046;SDS011;5576;50.008;10.596;2022-09-03T00:07:16;1.38;;;1.00;;
11046;SDS011;5576;50.008;10.596;2022-09-03T00:09:47;1.50;;;0.90;;
11046;SDS011;5576;50.008;10.596;2022-09-03T00:12:22;1.20;;;1.10;;
11046;SDS011;5576;50.008;10.596;2022-09-03T00:14:54;1.65;;;1.10;;
11046;SDS011;5576;50.008;10.596;2022-09-03T00:17:23;1.23;;;1.13;;
11046;SDS011;5576;50.008;10.596;2022-09-03T00:20:11;1.67;;;1.17;;
11046;SDS011;5576;50.008;10.596;2022-09-03T00:22:42;1.60;;;0.90;;
11046;SDS011;5576;50.008;10.596;2022-09-03T00:25:12;1.65;;;1.10;;
11046;SDS011;5576;50.008;10.596;2022-09-03T00:27:43;1.20;;;1.03;;
11046;SDS011;5576;50.008;10.596;2022-09-03T00:30:12;1.10;;;0.98;;
11046;SDS011;5576;50.008;10.596;2022-09-03T00:35:14;1.10;;;1.00;;
11046;SDS011;5576;50.008;10.596;2022-09-03T00:37:44;1.10;;;1.00;;
11046;SDS011;5576;50.008;10.596;2022-09-03T00:40:15;1.10;;;1.00;;
11046;SDS011;5576;50.008;10.596;2022-09-03T00:42:57;1.05;;;0.95;;
11046;SDS011;5576;50.008;10.596;2022-09-03T00:45:48;1.40;;;1.10;;
11046;SDS011;5576;50.008;10.596;2022-09-03T00:48:24;1.20;;;0.93;;
11046;SDS011;5576;50.008;10.596;2022-09-03T00:51:14;1.95;;;1.00;;
11046;SDS011;5576;50.008;10.596;2022-09-03T00:54:01;1.37;;;1.00;;
11046;SDS011;5576;50.008;10.596;2022-09-03T00:59:28;1.30;;;1.00;;
11046;SDS011;5576;50.008;10.596;2022-09-03T01:02:07;1.10;;;1.00;;
11046;SDS011;5576;50.008;10.596;2022-09-03T01:04:49;1.00;;;0.90;;
11046;SDS011;5576;50.008;10.596;2022-09-03T01:07:28;1.10;;;1.00;;
11046;SDS011;5576;50.008;10.596;2022-09-03T01:23:42;1.73;;;1.10;;
11046;SDS011;5576;50.008;10.596;2022-09-03T01:29:24;1.30;;;1.20;;
11046;SDS011;5576;50.008;10.596;2022-09-03T01:32:01;1.48;;;1.10;;
11046;SDS011;5576;50.008;10.596;2022-09-03T01:34:42;1.13;;;1.03;;
11046;SDS011;5576;50.008;10.596;2022-09-03T01:37:23;1.30;;;1.20;;
11046;SDS011;5576;50.008;10.596;2022-09-03T01:40:19;2.70;;;1.30;;
11046;SDS011;5576;50.008;10.596;2022-09-03T01:42:59;1.52;;;1.13;;
11046;SDS011;5576;50.008;10.596;2022-09-03T01:45:36;1.55;;;1.10;;
11046;SDS011;5576;50.008;10.596;2022-09-03T01:48:19;1.65;;;1.10;;
11046;SDS011;5576;50.008;10.596;2022-09-03T01:50:54;1.65;;;1.10;;
11046;SDS011;5576;50.008;10.596;2022-09-03T01:56:36;1.25;;;1.10;;
11046;SDS011;5576;50.008;10.596;2022-09-03T01:59:31;1.45;;;1.20;;
11046;SDS011;5576;50.008;10.596;2022-09-03T02:04:32;1.65;;;1.05;;
11046;SDS011;5576;50.008;10.596;2022-09-03T02:06:59;1.30;;;1.10;;
11046;SDS011;5576;50.008;10.596;2022-09-03T02:09:26;1.23;;;1.13;;
11046;SDS011;5576;50.008;10.596;2022-09-03T02:11:57;1.45;;;0.98;;
11046;SDS011;5576;50.008;10.596;2022-09-03T02:14:28;1.20;;;1.00;;
11046;SDS011;5576;50.008;10.596;2022-09-03T02:16:55;1.17;;;0.90;;
11046;SDS011;5576;50.008;10.596;2022-09-03T02:19:23;1.75;;;1.10;;
11046;SDS011;5576;50.008;10.596;2022-09-03T02:21:52;1.50;;;1.00;;
11046;SDS011;5576;50.008;10.596;2022-09-03T02:24:21;1.58;;;1.05;;
11046;SDS011;5576;50.008;10.596;2022-09-03T02:26:48;1.10;;;0.90;;
11046;SDS011;5576;50.008;10.596;2022-09-03T02:29:14;1.27;;;1.10;;
11046;SDS011;5576;50.008;10.596;2022-09-03T02:31:41;1.10;;;1.00;;
11046;SDS011;5576;50.008;10.596;2022-09-03T02:34:08;1.17;;;0.90;;
11046;SDS011;5576;50.008;10.596;2022-09-03T02:36:35;1.30;;;1.00;;
11046;SDS011;5576;50.008;10.596;2022-09-03T02:39:03;1.00;;;0.90;;
11046;SDS011;5576;50.008;10.596;2022-09-03T02:41:30;1.20;;;1.00;;
11046;SDS011;5576;50.008;10.596;2022-09-03T02:43:58;1.30;;;1.10;;
11046;SDS011;5576;50.008;10.596;2022-09-03T02:46:30;0.90;;;0.90;;
11046;SDS011;5576;50.008;10.596;2022-09-03T02:49:00;1.25;;;1.10;;
11046;SDS011;5576;50.008;10.596;2022-09-03T02:51:26;1.30;;;0.93;;
11046;SDS011;5576;50.008;10.596;2022-09-03T02:53:56;1.30;;;1.20;;
11046;SDS011;5576;50.008;10.596;2022-09-03T02:56:22;1.08;;;0.90;;
11046;SDS011;5576;50.008;10.596;2022-09-03T02:58:52;1.50;;;1.10;;
11046;SDS011;5576;50.008;10.596;2022-09-03T03:01:18;1.30;;;1.10;;
11046;SDS011;5576;50.008;10.596;2022-09-03T03:03:44;1.60;;;1.08;;
11046;SDS011;5576;50.008;10.596;2022-09-03T03:06:10;1.88;;;1.20;;
11046;SDS011;5576;50.008;10.596;2022-09-03T03:08:38;1.38;;;1.08;;
11046;SDS011;5576;50.008;10.596;2022-09-03T03:11:04;1.35;;;1.10;;
11046;SDS011;5576;50.008;10.596;2022-09-03T03:13:30;1.90;;;1.20;;
11046;SDS011;5576;50.008;10.596;2022-09-03T03:15:57;1.90;;;1.20;;
11046;SDS011;5576;50.008;10.596;2022-09-03T03:18:23;1.30;;;1.00;;
11046;SDS011;5576;50.008;10.596;2022-09-03T03:20:49;1.30;;;1.20;;
11046;SDS011;5576;50.008;10.596;2022-09-03T03:23:15;1.27;;;1.17;;
11046;SDS011;5576;50.008;10.596;2022-09-03T03:25:41;1.90;;;1.17;;
11046;SDS011;5576;50.008;10.596;2022-09-03T03:28:07;1.83;;;1.13;;
11046;SDS011;5576;50.008;10.596;2022-09-03T03:30:35;1.20;;;1.10;;
11046;SDS011;5576;50.008;10.596;2022-09-03T03:33:05;1.27;;;1.00;;
11046;SDS011;5576;50.008;10.596;2022-09-03T03:35:31;1.38;;;1.05;;
11046;SDS011;5576;50.008;10.596;2022-09-03T03:37:58;1.85;;;1.10;;
11046;SDS011;5576;50.008;10.596;2022-09-03T03:40:24;1.23;;;1.10;;
11046;SDS011;5576;50.008;10.596;2022-09-03T03:42:50;1.20;;;1.10;;
11046;SDS011;5576;50.008;10.596;2022-09-03T03:45:16;3.22;;;1.27;;
11046;SDS011;5576;50.008;10.596;2022-09-03T03:47:41;1.27;;;0.90;;
11046;SDS011;5576;50.008;10.596;2022-09-03T03:50:07;1.20;;;1.10;;
11046;SDS011;5576;50.008;10.596;2022-09-03T03:52:33;1.55;;;1.20;;
11046;SDS011;5576;50.008;10.596;2022-09-03T03:54:59;2.00;;;1.13;;
11046;SDS011;5576;50.008;10.596;2022-09-03T03:57:24;1.58;;;1.00;;
11046;SDS011;5576;50.008;10.596;2022-09-03T03:59:53;1.02;;;0.93;;
11046;SDS011;5576;50.008;10.596;2022-09-03T04:02:19;1.20;;;1.10;;
11046;SDS011;5576;50.008;10.596;2022-09-03T04:04:45;1.33;;;1.20;;
11046;SDS011;5576;50.008;10.596;2022-09-03T04:07:11;1.27;;;1.05;;
11046;SDS011;5576;50.008;10.596;2022-09-03T04:09:37;1.67;;;1.40;;
11046;SDS011;5576;50.008;10.596;2022-09-03T04:12:03;2.22;;;1.48;;
11046;SDS011;5576;50.008;10.596;2022-09-03T04:14:33;1.73;;;1.30;;
11046;SDS011;5576;50.008;10.596;2022-09-03T04:16:59;1.83;;;1.10;;
11046;SDS011;5576;50.008;10.596;2022-09-03T04:19:26;1.80;;;1.00;;
11046;SDS011;5576;50.008;10.596;2022-09-03T04:21:53;1.23;;;1.10;;
11046;SDS011;5576;50.008;10.596;2022-09-03T04:24:19;1.45;;;1.00;;
11046;SDS011;5576;50.008;10.596;2022-09-03T04:26:45;1.20;;;1.00;;
11046;SDS011;5576;50.008;10.596;2022-09-03T04:29:11;1.30;;;1.10;;
11046;SDS011;5576;50.008;10.596;2022-09-03T04:31:37;1.27;;;1.13;;
11046;SDS011;5576;50.008;10.596;2022-09-03T04:34:03;1.27;;;1.10;;
11046;SDS011;5576;50.008;10.596;2022-09-03T04:36:31;1.83;;;1.30;;
11046;SDS011;5576;50.008;10.596;2022-09-03T04:38:58;1.67;;;1.10;;
11046;SDS011;5576;50.008;10.596;2022-09-03T04:41:27;1.17;;;1.00;;
11046;SDS011;5576;50.008;10.596;2022-09-03T04:43:54;1.38;;;1.20;;
11046;SDS011;5576;50.008;10.596;2022-09-03T04:46:22;1.10;;;1.00;;
11046;SDS011;5576;50.008;10.596;2022-09-03T04:48:51;1.48;;;1.20;;
11046;SDS011;5576;50.008;10.596;2022-09-03T04:51:19;1.67;;;1.08;;
11046;SDS011;5576;50.008;10.596;2022-09-03T04:53:46;1.20;;;1.10;;
11046;SDS011;5576;50.008;10.596;2022-09-03T04:56:18;1.25;;;1.05;;
11046;SDS011;5576;50.008;10.596;2022-09-03T04:58:45;1.53;;;1.30;;
11046;SDS011;5576;50.008;10.596;2022-09-03T05:01:15;2.88;;;1.20;;
11046;SDS011;5576;50.008;10.596;2022-09-03T05:03:43;1.85;;;1.20;;
11046;SDS011;5576;50.008;10.596;2022-09-03T05:06:09;1.13;;;1.02;;
11046;SDS011;5576;50.008;10.596;2022-09-03T05:08:35;1.30;;;1.20;;
11046;SDS011;5576;50.008;10.596;2022-09-03T05:11:02;1.93;;;1.20;;
11046;SDS011;5576;50.008;10.596;2022-09-03T05:13:29;1.75;;;1.30;;
11046;SDS011;5576;50.008;10.596;2022-09-03T05:16:03;2.28;;;1.30;;
11046;SDS011;5576;50.008;10.596;2022-09-03T05:18:30;1.65;;;1.10;;
11046;SDS011;5576;50.008;10.596;2022-09-03T05:20:57;1.50;;;1.20;;
11046;SDS011;5576;50.008;10.596;2022-09-03T05:23:24;1.17;;;1.08;;
11046;SDS011;5576;50.008;10.596;2022-09-03T05:25:57;1.30;;;1.20;;
11046;SDS011;5576;50.008;10.596;2022-09-03T05:28:25;1.73;;;1.48;;
11046;SDS011;5576;50.008;10.596;2022-09-03T05:31:00;1.30;;;1.20;;
11046;SDS011;5576;50.008;10.596;2022-09-03T05:33:39;1.42;;;1.25;;
11046;SDS011;5576;50.008;10.596;2022-09-03T05:36:07;1.40;;;1.30;;
11046;SDS011;5576;50.008;10.596;2022-09-03T05:38:35;1.40;;;1.17;;
11046;SDS011;5576;50.008;10.596;2022-09-03T05:41:02;1.10;;;1.00;;
11046;SDS011;5576;50.008;10.596;2022-09-03T05:43:30;2.00;;;1.40;;
11046;SDS011;5576;50.008;10.596;2022-09-03T05:45:58;1.20;;;1.10;;
11046;SDS011;5576;50.008;10.596;2022-09-03T05:48:25;2.13;;;1.13;;
11046;SDS011;5576;50.008;10.596;2022-09-03T05:51:08;1.40;;;1.30;;
11046;SDS011;5576;50.008;10.596;2022-09-03T05:53:36;2.25;;;1.10;;
11046;SDS011;5576;50.008;10.596;2022-09-03T05:56:04;1.67;;;1.20;;
11046;SDS011;5576;50.008;10.596;2022-09-03T05:58:34;1.17;;;1.07;;
11046;SDS011;5576;50.008;10.596;2022-09-03T06:01:20;1.70;;;1.25;;
11046;SDS011;5576;50.008;10.596;2022-09-03T06:03:52;1.27;;;1.00;;
11046;SDS011;5576;50.008;10.596;2022-09-03T06:06:19;1.38;;;1.10;;
11046;SDS011;5576;50.008;10.596;2022-09-03T06:08:50;1.20;;;1.10;;
11046;SDS011;5576;50.008;10.596;2022-09-03T06:11:16;1.23;;;1.10;;
11046;SDS011;5576;50.008;10.596;2022-09-03T06:13:42;1.90;;;1.20;;
11046;SDS011;5576;50.008;10.596;2022-09-03T06:16:08;1.30;;;1.20;;
11046;SDS011;5576;50.008;10.596;2022-09-03T06:18:34;1.20;;;1.10;;
11046;SDS011;5576;50.008;10.596;2022-09-03T06:21:01;1.42;;;0.93;;
11046;SDS011;5576;50.008;10.596;2022-09-03T06:23:28;1.92;;;1.13;;
11046;SDS011;5576;50.008;10.596;2022-09-03T06:25:59;1.50;;;1.20;;
11046;SDS011;5576;50.008;10.596;2022-09-03T06:28:27;2.17;;;1.30;;
11046;SDS011;5576;50.008;10.596;2022-09-03T06:30:56;1.88;;;1.30;;
11046;SDS011;5576;50.008;10.596;2022-09-03T06:33:22;1.58;;;1.20;;
11046;SDS011;5576;50.008;10.596;2022-09-03T06:35:53;1.25;;;1.15;;
11046;SDS011;5576;50.008;10.596;2022-09-03T06:38:22;2.30;;;1.20;;
11046;SDS011;5576;50.008;10.596;2022-09-03T06:40:51;1.60;;;1.13;;
11046;SDS011;5576;50.008;10.596;2022-09-03T06:43:17;1.88;;;1.30;;
11046;SDS011;5576;50.008;10.596;2022-09-03T06:45:51;1.77;;;1.40;;
11046;SDS011;5576;50.008;10.596;2022-09-03T06:48:19;1.83;;;1.33;;
11046;SDS011;5576;50.008;10.596;2022-09-03T06:50:52;2.37;;;1.27;;
11046;SDS011;5576;50.008;10.596;2022-09-03T06:53:18;1.45;;;1.20;;
11046;SDS011;5576;50.008;10.596;2022-09-03T06:55:51;2.03;;;1.30;;
11046;SDS011;5576;50.008;10.596;2022-09-03T06:58:19;1.77;;;1.20;;
11046;SDS011;5576;50.008;10.596;2022-09-03T07:00:44;1.60;;;1.33;;
11046;SDS011;5576;50.008;10.596;2022-09-03T07:03:10;2.00;;;1.40;;
11046;SDS011;5576;50.008;10.596;2022-09-03T07:05:35;1.93;;;1.23;;
11046;SDS011;5576;50.008;10.596;2022-09-03T07:08:01;1.70;;;1.38;;
11046;SDS011;5576;50.008;10.596;2022-09-03T07:10:27;2.17;;;1.20;;
11046;SDS011;5576;50.008;10.596;2022-09-03T07:12:53;2.10;;;1.30;;
11046;SDS011;5576;50.008;10.596;2022-09-03T07:15:20;2.60;;;1.40;;
11046;SDS011;5576;50.008;10.596;2022-09-03T07:17:46;2.30;;;1.33;;
11046;SDS011;5576;50.008;10.596;2022-09-03T07:20:11;2.88;;;1.25;;
11046;SDS011;5576;50.008;10.596;2022-09-03T07:22:37;1.50;;;1.30;;
11046;SDS011;5576;50.008;10.596;2022-09-03T07:25:03;1.20;;;1.10;;
11046;SDS011;5576;50.008;10.596;2022-09-03T07:27:29;1.43;;;1.10;;
11046;SDS011;5576;50.008;10.596;2022-09-03T07:29:54;1.75;;;1.20;;
11046;SDS011;5576;50.008;10.596;2022-09-03T07:32:20;2.00;;;1.10;;
11046;SDS011;5576;50.008;10.596;2022-09-03T07:34:46;2.03;;;1.30;;
11046;SDS011;5576;50.008;10.596;2022-09-03T07:37:11;1.57;;;1.10;;
11046;SDS011;5576;50.008;10.596;2022-09-03T07:39:37;1.38;;;1.10;;
11046;SDS011;5576;50.008;10.596;2022-09-03T07:42:05;1.65;;;1.10;;
11046;SDS011;5576;50.008;10.596;2022-09-03T07:44:32;3.10;;;1.30;;
11046;SDS011;5576;50.008;10.596;2022-09-03T07:47:00;2.55;;;1.10;;
11046;SDS011;5576;50.008;10.596;2022-09-03T07:49:27;3.45;;;1.10;;
11046;SDS011;5576;50.008;10.596;2022-09-03T07:51:52;1.73;;;1.00;;
11046;SDS011;5576;50.008;10.596;2022-09-03T07:54:18;1.70;;;1.30;;
11046;SDS011;5576;50.008;10.596;2022-09-03T07:56:45;1.90;;;1.17;;
11046;SDS011;5576;50.008;10.596;2022-09-03T07:59:11;1.60;;;1.10;;
11046;SDS011;5576;50.008;10.596;2022-09-03T08:01:37;2.20;;;1.27;;
11046;SDS011;5576;50.008;10.596;2022-09-03T08:04:03;1.67;;;1.20;;
11046;SDS011;5576;50.008;10.596;2022-09-03T08:06:31;2.47;;;1.10;;
11046;SDS011;5576;50.008;10.596;2022-09-03T08:08:59;2.03;;;1.20;;
11046;SDS011;5576;50.008;10.596;2022-09-03T08:11:28;1.45;;;1.10;;
11046;SDS011;5576;50.008;10.596;2022-09-03T08:13:56;2.90;;;1.30;;
11046;SDS011;5576;50.008;10.596;2022-09-03T08:16:28;1.45;;;1.20;;
11046;SDS011;5576;50.008;10.596;2022-09-03T08:18:55;1.33;;;1.20;;
11046;SDS011;5576;50.008;10.596;2022-09-03T08:21:22;1.88;;;1.00;;
11046;SDS011;5576;50.008;10.596;2022-09-03T08:23:50;2.33;;;1.30;;
11046;SDS011;5576;50.008;10.596;2022-09-03T08:26:17;2.10;;;1.42;;
11046;SDS011;5576;50.008;10.596;2022-09-03T08:28:44;2.92;;;1.27;;
11046;SDS011;5576;50.008;10.596;2022-09-03T08:31:11;2.28;;;1.20;;
11046;SDS011;5576;50.008;10.596;2022-09-03T08:33:38;1.33;;;1.10;;
11046;SDS011;5576;50.008;10.596;2022-09-03T08:36:09;3.10;;;1.80;;
11046;SDS011;5576;50.008;10.596;2022-09-03T08:38:37;2.15;;;1.20;;
11046;SDS011;5576;50.008;10.596;2022-09-03T08:41:04;1.45;;;1.35;;
11046;SDS011;5576;50.008;10.596;2022-09-03T08:43:37;1.70;;;1.30;;
11046;SDS011;5576;50.008;10.596;2022-09-03T08:46:24;3.17;;;1.50;;
11046;SDS011;5576;50.008;10.596;2022-09-03T08:48:57;3.10;;;1.20;;
11046;SDS011;5576;50.008;10.596;2022-09-03T08:51:24;2.50;;;1.63;;
11046;SDS011;5576;50.008;10.596;2022-09-03T08:53:52;2.10;;;1.50;;
11046;SDS011;5576;50.008;10.596;2022-09-03T08:56:25;2.20;;;1.40;;
11046;SDS011;5576;50.008;10.596;2022-09-03T08:58:54;1.67;;;1.20;;
11046;SDS011;5576;50.008;10.596;2022-09-03T09:07:04;3.43;;;1.30;;
11046;SDS011;5576;50.008;10.596;2022-09-03T09:15:36;2.30;;;1.20;;
11046;SDS011;5576;50.008;10.596;2022-09-03T09:21:19;1.45;;;1.10;;
11046;SDS011;5576;50.008;10.596;2022-09-03T09:23:51;1.30;;;1.10;;
11046;SDS011;5576;50.008;10.596;2022-09-03T09:26:21;1.48;;;1.10;;
11046;SDS011;5576;50.008;10.596;2022-09-03T09:28:52;1.97;;;1.20;;
11046;SDS011;5576;50.008;10.596;2022-09-03T09:31:29;4.30;;;1.40;;
11046;SDS011;5576;50.008;10.596;2022-09-03T09:34:03;3.30;;;1.20;;
11046;SDS011;5576;50.008;10.596;2022-09-03T09:36:31;1.73;;;1.00;;
11046;SDS011;5576;50.008;10.596;2022-09-03T09:39:18;1.55;;;1.10;;
11046;SDS011;5576;50.008;10.596;2022-09-03T09:42:01;1.67;;;1.20;;
11046;SDS011;5576;50.008;10.596;2022-09-03T09:44:45;2.00;;;1.20;;
11046;SDS011;5576;50.008;10.596;2022-09-03T09:52:20;2.30;;;1.42;;
11046;SDS011;5576;50.008;10.596;2022-09-03T09:54:49;1.73;;;1.20;;
11046;SDS011;5576;50.008;10.596;2022-09-03T09:57:20;1.80;;;1.30;;
11046;SDS011;5576;50.008;10.596;2022-09-03T09:59:48;2.83;;;1.20;;
11046;SDS011;5576;50.008;10.596;2022-09-03T10:02:18;2.20;;;1.10;;
11046;SDS011;5576;50.008;10.596;2022-09-03T10:04:52;2.50;;;1.30;;
11046;SDS011;5576;50.008;10.596;2022-09-03T10:07:25;1.73;;;1.30;;
11046;SDS011;5576;50.008;10.596;2022-09-03T10:09:56;2.00;;;1.30;;
11046;SDS011;5576;50.008;10.596;2022-09-03T10:12:25;1.83;;;1.47;;
11046;SDS011;5576;50.008;10.596;2022-09-03T10:15:02;1.20;;;1.10;;
11046;SDS011;5576;50.008;10.596;2022-09-03T10:18:07;2.63;;;1.13;;
11046;SDS011;5576;50.008;10.596;2022-09-03T10:20:43;1.88;;;1.10;;
11046;SDS011;5576;50.008;10.596;2022-09-03T10:28:35;1.85;;;1.30;;
11046;SDS011;5576;50.008;10.596;2022-09-03T10:33:38;1.95;;;1.48;;
11046;SDS011;5576;50.008;10.596;2022-09-03T10:36:10;1.85;;;1.25;;
11046;SDS011;5576;50.008;10.596;2022-09-03T10:39:01;1.60;;;1.10;;
11046;SDS011;5576;50.008;10.596;2022-09-03T10:41:37;3.13;;;1.10;;
11046;SDS011;5576;50.008;10.596;2022-09-03T10:46:55;2.25;;;1.27;;
11046;SDS011;5576;50.008;10.596;2022-09-03T10:49:54;1.90;;;1.20;;
11046;SDS011;5576;50.008;10.596;2022-09-03T10:52:33;2.60;;;1.20;;
11046;SDS011;5576;50.008;10.596;2022-09-03T10:55:24;1.80;;;1.20;;
11046;SDS011;5576;50.008;10.596;2022-09-03T10:58:24;2.43;;;1.20;;
11046;SDS011;5576;50.008;10.596;2022-09-03T11:06:50;2.95;;;1.20;;
11046;SDS011;5576;50.008;10.596;2022-09-03T11:09:21;1.73;;;1.13;;
11046;SDS011;5576;50.008;10.596;2022-09-03T11:11:55;2.10;;;1.45;;
11046;SDS011;5576;50.008;10.596;2022-09-03T11:14:30;1.60;;;1.08;;
11046;SDS011;5576;50.008;10.596;2022-09-03T11:17:01;1.33;;;1.23;;
11046;SDS011;5576;50.008;10.596;2022-09-03T11:19:34;1.90;;;1.10;;
11046;SDS011;5576;50.008;10.596;2022-09-03T11:22:04;2.10;;;1.10;;
11046;SDS011;5576;50.008;10.596;2022-09-03T11:24:32;2.10;;;1.10;;
11046;SDS011;5576;50.008;10.596;2022-09-03T11:27:14;1.43;;;1.10;;
11046;SDS011;5576;50.008;10.596;2022-09-03T11:32:17;1.30;;;1.20;;
11046;SDS011;5576;50.008;10.596;2022-09-03T11:34:49;2.50;;;1.75;;
11046;SDS011;5576;50.008;10.596;2022-09-03T11:37:17;1.85;;;1.10;;
11046;SDS011;5576;50.008;10.596;2022-09-03T11:39:52;1.85;;;1.10;;
11046;SDS011;5576;50.008;10.596;2022-09-03T11:44:52;2.33;;;1.15;;
11046;SDS011;5576;50.008;10.596;2022-09-03T11:47:41;1.33;;;1.10;;
11046;SDS011;5576;50.008;10.596;2022-09-03T11:50:16;1.47;;;1.00;;
11046;SDS011;5576;50.008;10.596;2022-09-03T11:52:45;1.33;;;1.23;;
11046;SDS011;5576;50.008;10.596;2022-09-03T11:55:30;2.38;;;1.15;;
11046;SDS011;5576;50.008;10.596;2022-09-03T11:57:57;1.33;;;0.98;;
11046;SDS011;5576;50.008;10.596;2022-09-03T12:00:34;1.80;;;1.10;;
11046;SDS011;5576;50.008;10.596;2022-09-03T12:03:02;1.30;;;1.20;;
11046;SDS011;5576;50.008;10.596;2022-09-03T12:05:47;1.73;;;1.20;;
11046;SDS011;5576;50.008;10.596;2022-09-03T12:11:09;1.80;;;1.30;;
11046;SDS011;5576;50.008;10.596;2022-09-03T12:16:40;1.77;;;1.00;;
11046;SDS011;5576;50.008;10.596;2022-09-03T12:19:20;1.42;;;1.10;;
11046;SDS011;5576;50.008;10.596;2022-09-03T12:22:12;2.10;;;1.20;;
11046;SDS011;5576;50.008;10.596;2022-09-03T12:24:39;2.13;;;1.15;;
11046;SDS011;5576;50.008;10.596;2022-09-03T12:27:08;1.73;;;1.20;;
11046;SDS011;5576;50.008;10.596;2022-09-03T12:29:37;2.10;;;1.00;;
11046;SDS011;5576;50.008;10.596;2022-09-03T12:32:14;1.30;;;0.93;;
11046;SDS011;5576;50.008;10.596;2022-09-03T12:34:40;1.47;;;0.90;;
11046;SDS011;5576;50.008;10.596;2022-09-03T12:37:15;2.55;;;1.30;;
11046;SDS011;5576;50.008;10.596;2022-09-03T12:39:53;1.88;;;1.10;;
11046;SDS011;5576;50.008;10.596;2022-09-03T12:42:22;2.30;;;1.20;;
11046;SDS011;5576;50.008;10.596;2022-09-03T12:44:50;1.40;;;1.10;;
11046;SDS011;5576;50.008;10.596;2022-09-03T12:47:18;1.55;;;1.13;;
11046;SDS011;5576;50.008;10.596;2022-09-03T12:49:51;1.35;;;1.13;;
11046;SDS011;5576;50.008;10.596;2022-09-03T12:52:26;1.65;;;1.20;;
11046;SDS011;5576;50.008;10.596;2022-09-03T12:55:00;1.45;;;1.00;;
11046;SDS011;5576;50.008;10.596;2022-09-03T12:57:32;1.45;;;1.20;;
11046;SDS011;5576;50.008;10.596;2022-09-03T13:00:05;2.90;;;1.20;;
11046;SDS011;5576;50.008;10.596;2022-09-03T13:02:50;1.58;;;1.20;;
11046;SDS011;5576;50.008;10.596;2022-09-03T13:05:25;1.05;;;1.00;;
11046;SDS011;5576;50.008;10.596;2022-09-03T13:07:55;1.73;;;1.10;;
11046;SDS011;5576;50.008;10.596;2022-09-03T13:10:27;1.83;;;1.20;;
11046;SDS011;5576;50.008;10.596;2022-09-03T13:12:57;3.20;;;1.20;;
11046;SDS011;5576;50.008;10.596;2022-09-03T13:15:25;1.10;;;1.00;;
11046;SDS011;5576;50.008;10.596;2022-09-03T13:18:09;1.30;;;1.20;;
11046;SDS011;5576;50.008;10.596;2022-09-03T13:26:49;1.35;;;1.17;;
11046;SDS011;5576;50.008;10.596;2022-09-03T13:29:36;1.30;;;1.20;;
11046;SDS011;5576;50.008;10.596;2022-09-03T13:32:24;2.97;;;1.50;;
11046;SDS011;5576;50.008;10.596;2022-09-03T13:35:01;1.60;;;1.13;;
11046;SDS011;5576;50.008;10.596;2022-09-03T13:37:48;2.20;;;1.30;;
11046;SDS011;5576;50.008;10.596;2022-09-03T13:40:24;2.00;;;1.30;;
11046;SDS011;5576;50.008;10.596;2022-09-03T13:46:10;1.52;;;1.23;;
11046;SDS011;5576;50.008;10.596;2022-09-03T13:48:43;1.70;;;1.40;;
11046;SDS011;5576;50.008;10.596;2022-09-03T13:51:30;2.30;;;1.30;;
11046;SDS011;5576;50.008;10.596;2022-09-03T13:54:11;1.50;;;1.40;;
11046;SDS011;5576;50.008;10.596;2022-09-03T13:59:38;2.75;;;1.25;;
11046;SDS011;5576;50.008;10.596;2022-09-03T14:05:10;1.73;;;1.38;;
11046;SDS011;5576;50.008;10.596;2022-09-03T14:16:23;1.70;;;1.50;;
11046;SDS011;5576;50.008;10.596;2022-09-03T14:22:03;2.40;;;1.40;;
11046;SDS011;5576;50.008;10.596;2022-09-03T14:27:22;1.42;;;1.27;;
11046;SDS011;5576;50.008;10.596;2022-09-03T14:29:52;1.70;;;1.33;;
11046;SDS011;5576;50.008;10.596;2022-09-03T14:32:31;1.60;;;1.50;;
11046;SDS011;5576;50.008;10.596;2022-09-03T14:48:53;2.47;;;1.50;;
11046;SDS011;5576;50.008;10.596;2022-09-03T14:57:19;1.70;;;1.60;;
11046;SDS011;5576;50.008;10.596;2022-09-03T15:02:58;1.70;;;1.60;;
11046;SDS011;5576;50.008;10.596;2022-09-03T15:05:38;2.58;;;1.73;;
11046;SDS011;5576;50.008;10.596;2022-09-03T15:11:18;1.77;;;1.67;;
11046;SDS011;5576;50.008;10.596;2022-09-03T15:13:59;2.58;;;1.80;;
11046;SDS011;5576;50.008;10.596;2022-09-03T15:16:54;2.10;;;1.70;;
11046;SDS011;5576;50.008;10.596;2022-09-03T15:25:09;1.73;;;1.50;;
11046;SDS011;5576;50.008;10.596;2022-09-03T15:30:44;2.10;;;1.80;;
11046;SDS011;5576;50.008;10.596;2022-09-03T15:33:39;1.90;;;1.80;;
11046;SDS011;5576;50.008;10.596;2022-09-03T15:36:34;2.15;;;1.90;;
11046;SDS011;5576;50.008;10.596;2022-09-03T15:39:05;2.10;;;1.90;;
11046;SDS011;5576;50.008;10.596;2022-09-03T15:41:39;2.10;;;1.90;;
11046;SDS011;5576;50.008;10.596;2022-09-03T15:44:12;2.20;;;1.80;;
11046;SDS011;5576;50.008;10.596;2022-09-03T15:55:11;2.45;;;1.80;;
11046;SDS011;5576;50.008;10.596;2022-09-03T15:58:05;2.28;;;1.70;;
11046;SDS011;5576;50.008;10.596;2022-09-03T16:03:33;2.38;;;1.90;;
11046;SDS011;5576;50.008;10.596;2022-09-03T16:06:20;2.80;;;1.88;;
11046;SDS011;5576;50.008;10.596;2022-09-03T16:09:08;2.57;;;1.87;;
11046;SDS011;5576;50.008;10.596;2022-09-03T16:11:49;2.42;;;2.20;;
11046;SDS011;5576;50.008;10.596;2022-09-03T16:14:41;2.22;;;2.10;;
11046;SDS011;5576;50.008;10.596;2022-09-03T16:20:08;2.38;;;1.90;;
11046;SDS011;5576;50.008;10.596;2022-09-03T16:25:31;2.00;;;1.90;;
11046;SDS011;5576;50.008;10.596;2022-09-03T16:28:12;2.10;;;1.90;;
11046;SDS011;5576;50.008;10.596;2022-09-03T16:33:53;2.70;;;2.00;;
11046;SDS011;5576;50.008;10.596;2022-09-03T16:42:00;2.17;;;1.98;;
11046;SDS011;5576;50.008;10.596;2022-09-03T16:53:21;2.10;;;1.90;;
11046;SDS011;5576;50.008;10.596;2022-09-03T17:04:40;1.83;;;1.73;;
11046;SDS011;5576;50.008;10.596;2022-09-03T17:07:21;2.00;;;1.80;;
11046;SDS011;5576;50.008;10.596;2022-09-03T17:10:02;2.40;;;2.00;;
11046;SDS011;5576;50.008;10.596;2022-09-03T17:12:49;3.20;;;2.05;;
11046;SDS011;5576;50.008;10.596;2022-09-03T17:18:29;2.13;;;1.63;;
11046;SDS011;5576;50.008;10.596;2022-09-03T17:21:29;4.03;;;1.88;;
11046;SDS011;5576;50.008;10.596;2022-09-03T17:32:36;1.83;;;1.60;;
11046;SDS011;5576;50.008;10.596;2022-09-03T17:35:14;3.27;;;1.90;;
11046;SDS011;5576;50.008;10.596;2022-09-03T17:37:56;2.70;;;1.90;;
11046;SDS011;5576;50.008;10.596;2022-09-03T17:40:47;2.37;;;1.80;;
11046;SDS011;5576;50.008;10.596;2022-09-03T17:49:18;3.33;;;2.22;;
11046;SDS011;5576;50.008;10.596;2022-09-03T17:56:53;3.42;;;2.10;;
11046;SDS011;5576;50.008;10.596;2022-09-03T17:59:36;2.20;;;2.00;;
11046;SDS011;5576;50.008;10.596;2022-09-03T18:10:42;2.63;;;2.07;;
11046;SDS011;5576;50.008;10.596;2022-09-03T18:13:13;2.27;;;2.07;;
11046;SDS011;5576;50.008;10.596;2022-09-03T18:18:23;3.13;;;2.03;;
11046;SDS011;5576;50.008;10.596;2022-09-03T18:20:51;1.95;;;1.67;;
11046;SDS011;5576;50.008;10.596;2022-09-03T18:26:32;2.13;;;1.92;;
11046;SDS011;5576;50.008;10.596;2022-09-03T18:29:30;1.70;;;1.60;;
11046;SDS011;5576;50.008;10.596;2022-09-03T18:32:20;2.40;;;1.75;;
11046;SDS011;5576;50.008;10.596;2022-09-03T18:35:06;2.15;;;1.80;;
11046;SDS011;5576;50.008;10.596;2022-09-03T18:37:53;1.80;;;1.70;;
11046;SDS011;5576;50.008;10.596;2022-09-03T18:40:46;1.80;;;1.70;;
11046;SDS011;5576;50.008;10.596;2022-09-03T18:43:58;1.90;;;1.80;;
11046;SDS011;5576;50.008;10.596;2022-09-03T18:49:39;1.85;;;1.70;;
11046;SDS011;5576;50.008;10.596;2022-09-03T18:52:37;2.03;;;1.83;;
11046;SDS011;5576;50.008;10.596;2022-09-03T18:58:50;2.00;;;1.80;;
11046;SDS011;5576;50.008;10.596;2022-09-03T19:01:48;1.98;;;1.73;;
11046;SDS011;5576;50.008;10.596;2022-09-03T19:04:42;2.25;;;1.67;;
11046;SDS011;5576;50.008;10.596;2022-09-03T19:07:59;2.80;;;1.67;;
11046;SDS011;5576;50.008;10.596;2022-09-03T19:10:56;1.60;;;1.50;;